createdAt,value
2019-01-17T00:00:53.839Z,-0.70
2019-01-17T00:03:41.360Z,-0.70
2019-01-17T00:06:15.462Z,-0.60
2019-01-17T00:08:52.749Z,-0.60
2019-01-17T00:11:24.065Z,-0.90
2019-01-17T00:14:04.549Z,-0.80
2019-01-17T00:16:41.773Z,-0.80
2019-01-17T00:19:14.678Z,-0.80
2019-01-17T00:21:55.281Z,-1.10
2019-01-17T00:24:26.553Z,-1.30
2019-01-17T00:27:03.805Z,-1.20
2019-01-17T00:29:39.993Z,-1.00
2019-01-17T00:32:26.205Z,-0.90
2019-01-17T00:35:06.354Z,-1.00
2019-01-17T00:37:37.727Z,-0.90
2019-01-17T00:40:27.186Z,-0.90
2019-01-17T00:43:13.334Z,-1.00
2019-01-17T00:45:56.382Z,-1.10
2019-01-17T00:48:30.528Z,-1.00
2019-01-17T00:51:18.055Z,-1.00
2019-01-17T00:53:52.161Z,-0.90
2019-01-17T00:56:26.178Z,-1.20
2019-01-17T00:59:13.829Z,-1.20
2019-01-17T01:01:48.174Z,-1.00
2019-01-17T01:04:25.375Z,-1.10
2019-01-17T01:07:05.789Z,-1.20
2019-01-17T01:09:52.298Z,-1.40
2019-01-17T01:12:26.245Z,-1.30
2019-01-17T01:15:06.080Z,-1.20
2019-01-17T01:17:40.098Z,-1.20
2019-01-17T01:20:15.484Z,-1.20
2019-01-17T01:23:03.192Z,-1.10
2019-01-17T01:25:52.745Z,-1.10
2019-01-17T01:28:24.033Z,-1.00
2019-01-17T01:30:55.392Z,-1.00
2019-01-17T01:33:38.802Z,-1.20
2019-01-17T01:36:10.073Z,-1.10
2019-01-17T01:38:41.401Z,-1.10
2019-01-17T01:41:27.729Z,-1.10
2019-01-17T01:44:01.700Z,-1.20
2019-01-17T01:46:50.946Z,-1.10
2019-01-17T01:49:25.222Z,-1.00
2019-01-17T01:52:12.781Z,-1.20
2019-01-17T01:54:42.454Z,-1.00
2019-01-17T01:57:12.086Z,-1.00
2019-01-17T01:59:41.756Z,-1.20
2019-01-17T02:02:11.388Z,-1.10
2019-01-17T02:04:41.040Z,-1.20
2019-01-17T02:07:10.748Z,-0.90
2019-01-17T02:09:40.808Z,-0.70
2019-01-17T02:12:10.512Z,-0.50
2019-01-17T02:14:40.239Z,-0.40
2019-01-17T02:17:10.228Z,-0.50
2019-01-17T02:19:40.105Z,-0.50
2019-01-17T02:22:09.864Z,-0.50
2019-01-17T02:24:39.545Z,-0.50
2019-01-17T02:27:09.178Z,-0.50
2019-01-17T02:29:38.972Z,-0.60
2019-01-17T02:32:08.601Z,-0.50
2019-01-17T02:34:38.320Z,-0.40
2019-01-17T02:37:08.035Z,-0.30
2019-01-17T02:39:37.681Z,-0.10
2019-01-17T02:42:07.308Z,0.40
2019-01-17T02:44:36.945Z,0.60
2019-01-17T02:47:06.636Z,0.90
2019-01-17T02:49:36.330Z,1.20
2019-01-17T02:52:06.020Z,1.40
2019-01-17T02:54:35.908Z,1.50
2019-01-17T02:57:05.757Z,1.60
2019-01-17T02:59:37.220Z,2.00
2019-01-17T03:02:07.073Z,2.20
2019-01-17T03:04:36.735Z,2.30
2019-01-17T03:07:06.433Z,2.20
2019-01-17T03:09:36.077Z,2.00
2019-01-17T03:12:05.699Z,2.00
2019-01-17T03:14:35.335Z,1.90
2019-01-17T03:17:05.042Z,2.00
2019-01-17T03:19:35.753Z,2.40
2019-01-17T03:22:05.385Z,2.30
2019-01-17T03:24:35.097Z,2.50
2019-01-17T03:27:04.713Z,2.50
2019-01-17T03:29:34.480Z,2.50
2019-01-17T03:32:04.158Z,2.40
2019-01-17T03:34:33.797Z,2.40
2019-01-17T03:37:03.492Z,2.50
2019-01-17T03:39:33.215Z,2.60
2019-01-17T03:42:02.890Z,2.70
2019-01-17T03:44:32.552Z,2.80
2019-01-17T03:47:02.172Z,2.30
2019-01-17T03:49:31.925Z,1.90
2019-01-17T03:52:01.616Z,1.60
2019-01-17T03:54:31.192Z,1.70
2019-01-17T03:57:00.836Z,1.40
2019-01-17T03:59:30.456Z,1.30
2019-01-17T04:02:00.118Z,1.40
2019-01-17T04:04:29.817Z,1.40
2019-01-17T04:06:59.457Z,1.40
2019-01-17T04:09:29.112Z,1.40
2019-01-17T04:11:58.781Z,1.30
2019-01-17T04:14:29.882Z,1.00
2019-01-17T04:16:59.480Z,1.10
2019-01-17T04:19:29.245Z,1.10
2019-01-17T04:21:58.888Z,1.10
2019-01-17T04:24:28.505Z,0.90
2019-01-17T04:26:58.171Z,1.00
2019-01-17T04:29:27.769Z,0.70
2019-01-17T04:31:57.418Z,0.80
2019-01-17T04:34:27.029Z,0.80
2019-01-17T04:36:56.670Z,0.80
2019-01-17T04:39:26.419Z,0.70
2019-01-17T04:41:56.068Z,0.70
2019-01-17T04:44:25.765Z,0.80
2019-01-17T04:46:55.408Z,0.70
2019-01-17T04:49:25.042Z,0.50
2019-01-17T04:51:54.696Z,0.40
2019-01-17T04:54:24.327Z,0.50
2019-01-17T04:56:53.980Z,0.70
2019-01-17T04:59:23.646Z,0.60
2019-01-17T05:01:53.296Z,0.60
2019-01-17T05:04:23.057Z,0.70
2019-01-17T05:06:52.703Z,0.70
2019-01-17T05:09:22.316Z,0.50
2019-01-17T05:11:51.949Z,0.40
2019-01-17T05:14:21.641Z,0.30
2019-01-17T05:16:51.281Z,0.40
2019-01-17T05:19:20.939Z,0.40
2019-01-17T05:21:50.585Z,0.20
2019-01-17T05:24:20.225Z,0.20
2019-01-17T05:26:49.970Z,0.30
2019-01-17T05:29:19.584Z,0.10
2019-01-17T05:31:49.229Z,0.30
2019-01-17T05:34:18.862Z,0.30
2019-01-17T05:36:48.578Z,0.40
2019-01-17T05:39:18.196Z,0.30
2019-01-17T05:41:53.879Z,0.10
2019-01-17T05:44:28.113Z,0.30
2019-01-17T05:46:57.785Z,0.30
2019-01-17T05:49:27.409Z,0.20
2019-01-17T05:51:57.050Z,0.10
2019-01-17T05:54:26.677Z,0.30
2019-01-17T05:56:56.326Z,0.10
2019-01-17T05:59:25.940Z,0.10
2019-01-17T06:01:55.589Z,0.00
2019-01-17T06:04:25.275Z,0.00
2019-01-17T06:06:56.880Z,0.00
2019-01-17T06:09:35.423Z,0.10
2019-01-17T06:12:08.613Z,0.10
2019-01-17T06:14:39.438Z,0.30
2019-01-17T06:17:10.476Z,0.30
2019-01-17T06:22:23.932Z,0.10
2019-01-17T06:24:57.429Z,0.00
2019-01-17T06:27:29.306Z,0.10
2019-01-17T06:30:00.567Z,0.20
2019-01-17T06:32:35.892Z,0.20
2019-01-17T06:35:08.876Z,0.20
2019-01-17T06:37:39.408Z,0.10
2019-01-17T06:40:12.790Z,0.20
2019-01-17T06:42:44.093Z,0.30
2019-01-17T06:45:16.394Z,0.30
2019-01-17T06:47:46.959Z,0.20
2019-01-17T06:50:31.151Z,0.20
2019-01-17T06:53:02.684Z,0.30
2019-01-17T06:55:36.910Z,0.30
2019-01-17T06:58:07.259Z,0.20
2019-01-17T07:00:58.882Z,0.40
2019-01-17T07:03:32.483Z,0.40
2019-01-17T07:06:03.555Z,0.30
2019-01-17T07:08:35.706Z,0.40
2019-01-17T07:11:08.570Z,0.50
2019-01-17T07:13:43.889Z,0.60
2019-01-17T07:16:14.131Z,0.70
2019-01-17T07:18:52.645Z,0.70
2019-01-17T07:21:24.357Z,0.80
2019-01-17T07:23:56.024Z,0.60
2019-01-17T07:26:28.263Z,0.70
2019-01-17T07:29:07.762Z,0.80
2019-01-17T07:32:01.904Z,0.90
2019-01-17T07:34:32.408Z,0.90
2019-01-17T07:37:04.313Z,1.10
2019-01-17T07:39:36.666Z,1.10
2019-01-17T07:42:09.787Z,1.20
2019-01-17T07:44:41.663Z,1.90
2019-01-17T07:47:12.070Z,1.90
2019-01-17T07:50:13.830Z,1.90
2019-01-17T07:52:44.769Z,1.80
2019-01-17T07:55:18.571Z,1.90
2019-01-17T07:57:51.218Z,2.10
2019-01-17T08:00:29.827Z,2.50
2019-01-17T08:03:05.318Z,2.70
2019-01-17T08:05:36.451Z,2.90
2019-01-17T08:08:06.876Z,3.10
2019-01-17T08:10:39.929Z,3.30
2019-01-17T08:13:17.147Z,3.40
2019-01-17T08:15:48.187Z,3.30
2019-01-17T08:18:20.081Z,3.30
2019-01-17T08:20:56.001Z,3.30
2019-01-17T08:23:34.307Z,3.50
2019-01-17T08:26:00.228Z,3.50
2019-01-17T08:28:32.818Z,3.70
2019-01-17T08:31:06.297Z,3.80
2019-01-17T08:33:36.166Z,4.00
2019-01-17T08:36:08.208Z,4.20
2019-01-17T08:38:47.308Z,4.30
2019-01-17T08:41:19.575Z,4.40
2019-01-17T08:43:50.435Z,4.50
2019-01-17T08:46:27.185Z,4.80
2019-01-17T08:48:57.176Z,4.90
2019-01-17T08:51:31.825Z,4.90
2019-01-17T08:54:02.683Z,5.00
2019-01-17T08:56:34.488Z,5.00
2019-01-17T08:59:08.978Z,5.10
2019-01-17T09:01:44.384Z,5.20
2019-01-17T09:04:16.212Z,5.20
2019-01-17T09:06:49.839Z,5.40
2019-01-17T09:09:22.758Z,5.40
2019-01-17T09:11:59.750Z,5.40
2019-01-17T09:14:32.715Z,5.50
2019-01-17T09:17:04.565Z,5.40
2019-01-17T09:19:38.039Z,5.40
2019-01-17T09:22:10.291Z,5.70
2019-01-17T09:24:42.928Z,5.70
2019-01-17T09:27:17.876Z,5.70
2019-01-17T09:30:10.562Z,5.80
2019-01-17T09:32:40.809Z,5.80
2019-01-17T09:35:14.178Z,5.80
2019-01-17T09:37:48.345Z,5.90
2019-01-17T09:40:22.166Z,5.80
2019-01-17T09:42:56.612Z,6.00
2019-01-17T09:45:28.789Z,6.00
2019-01-17T09:48:34.949Z,6.00
2019-01-17T09:51:07.005Z,5.90
2019-01-17T09:53:41.819Z,6.00
2019-01-17T09:56:33.196Z,6.00
2019-01-17T09:59:06.279Z,6.00
2019-01-17T10:01:58.052Z,6.00
2019-01-17T10:04:29.523Z,6.00
2019-01-17T10:07:02.498Z,6.00
2019-01-17T10:09:37.301Z,6.00
2019-01-17T10:12:09.614Z,6.00
2019-01-17T10:14:39.850Z,6.00
2019-01-17T10:17:15.256Z,6.10
2019-01-17T10:20:04.135Z,6.20
2019-01-17T10:22:41.974Z,6.20
2019-01-17T10:25:24.532Z,6.40
2019-01-17T10:28:16.964Z,7.20
2019-01-17T10:31:09.816Z,6.70
2019-01-17T10:33:46.847Z,6.30
2019-01-17T10:36:47.428Z,6.20
2019-01-17T10:39:26.969Z,6.20
2019-01-17T10:42:16.539Z,6.20
2019-01-17T10:44:56.826Z,6.20
2019-01-17T10:48:00.077Z,6.20
2019-01-17T10:50:32.077Z,6.20
2019-01-17T10:53:25.908Z,6.30
2019-01-17T10:56:16.361Z,6.30
2019-01-17T10:59:01.169Z,6.40
2019-01-17T11:01:52.245Z,6.30
2019-01-17T11:04:48.528Z,6.40
2019-01-17T11:07:41.015Z,6.30
2019-01-17T11:10:31.793Z,6.20
2019-01-17T11:13:10.425Z,6.20
2019-01-17T11:16:00.132Z,6.10
2019-01-17T11:19:06.264Z,6.00
2019-01-17T11:21:54.088Z,5.90
2019-01-17T11:24:29.651Z,5.90
2019-01-17T11:27:26.088Z,5.90
2019-01-17T11:30:07.607Z,5.90
2019-01-17T11:32:55.324Z,5.90
2019-01-17T11:35:47.709Z,5.90
2019-01-17T11:38:38.524Z,5.90
2019-01-17T11:41:14.264Z,6.00
2019-01-17T11:44:18.982Z,6.00
2019-01-17T11:46:58.725Z,6.10
2019-01-17T11:50:06.053Z,6.00
2019-01-17T11:52:57.924Z,6.00
2019-01-17T11:55:49.469Z,5.90
2019-01-17T11:58:33.525Z,5.90
2019-01-17T12:01:25.701Z,5.80
2019-01-17T12:04:03.977Z,5.90
2019-01-17T12:06:33.694Z,5.90
2019-01-17T12:09:04.368Z,5.80
2019-01-17T12:11:34.001Z,5.80
2019-01-17T12:14:04.421Z,5.80
2019-01-17T12:16:34.629Z,5.80
2019-01-17T12:19:07.052Z,6.10
2019-01-17T12:21:38.653Z,6.30
2019-01-17T12:24:08.671Z,6.10
2019-01-17T12:26:38.260Z,5.90
2019-01-17T12:29:07.996Z,6.00
2019-01-17T12:31:37.682Z,5.90
2019-01-17T12:34:07.393Z,6.00
2019-01-17T12:36:37.308Z,6.00
2019-01-17T12:39:09.650Z,6.00
2019-01-17T12:41:39.412Z,6.10
2019-01-17T12:44:09.233Z,6.10
2019-01-17T12:46:38.932Z,6.00
2019-01-17T12:49:08.732Z,6.10
2019-01-17T12:51:38.356Z,6.10
2019-01-17T12:54:07.997Z,6.10
2019-01-17T12:56:37.614Z,6.10
2019-01-17T12:59:07.436Z,6.10
2019-01-17T13:01:37.077Z,6.10
2019-01-17T13:04:19.197Z,6.10
2019-01-17T13:06:49.151Z,6.10
2019-01-17T13:09:19.429Z,6.10
2019-01-17T13:11:49.566Z,6.10
2019-01-17T13:14:19.379Z,6.10
2019-01-17T13:16:48.985Z,6.10
2019-01-17T13:19:18.797Z,6.10
2019-01-17T13:21:48.345Z,6.10
2019-01-17T13:24:18.057Z,6.20
2019-01-17T13:26:47.793Z,6.20
2019-01-17T13:29:17.440Z,6.20
2019-01-17T13:31:47.490Z,6.20
2019-01-17T13:34:17.208Z,6.20
2019-01-17T13:36:46.803Z,6.20
2019-01-17T13:39:16.441Z,6.20
2019-01-17T13:41:46.073Z,6.20
2019-01-17T13:44:15.712Z,7.90
2019-01-17T13:46:45.397Z,7.50
2019-01-17T13:49:15.034Z,6.80
2019-01-17T13:51:44.742Z,6.50
2019-01-17T13:54:14.367Z,6.40
2019-01-17T13:56:44.225Z,6.40
2019-01-17T13:59:13.886Z,6.30
2019-01-17T14:01:43.601Z,6.30
2019-01-17T14:04:13.564Z,6.30
2019-01-17T14:06:43.361Z,6.30
2019-01-17T14:09:13.112Z,6.20
2019-01-17T14:11:42.914Z,6.20
2019-01-17T14:14:12.939Z,6.20
2019-01-17T14:16:43.339Z,6.10
2019-01-17T14:19:13.144Z,6.10
2019-01-17T14:21:42.877Z,6.10
2019-01-17T14:24:14.092Z,6.10
2019-01-17T14:26:43.957Z,6.10
2019-01-17T14:29:13.656Z,6.10
2019-01-17T14:31:43.294Z,6.10
2019-01-17T14:34:12.916Z,6.10
2019-01-17T14:36:43.781Z,6.10
2019-01-17T14:39:13.468Z,6.10
2019-01-17T14:41:43.120Z,6.10
2019-01-17T14:44:12.738Z,6.00
2019-01-17T14:46:42.376Z,5.90
2019-01-17T14:49:11.994Z,5.80
2019-01-17T14:51:41.693Z,5.70
2019-01-17T14:54:11.300Z,5.70
2019-01-17T14:56:41.133Z,5.60
2019-01-17T14:59:10.750Z,6.60
2019-01-17T15:01:40.388Z,7.60
2019-01-17T15:04:10.012Z,8.10
2019-01-17T15:06:39.817Z,8.30
2019-01-17T15:09:09.581Z,8.50
2019-01-17T15:11:39.273Z,9.10
2019-01-17T15:14:08.896Z,8.90
2019-01-17T15:16:40.992Z,8.80
2019-01-17T15:22:02.711Z,7.40
2019-01-17T15:24:34.677Z,6.60
2019-01-17T15:27:10.180Z,6.20
2019-01-17T15:29:41.857Z,6.10
2019-01-17T15:32:15.764Z,6.50
2019-01-17T15:34:47.953Z,7.30
2019-01-17T15:37:41.799Z,8.00
2019-01-17T15:40:24.405Z,7.20
2019-01-17T15:42:58.754Z,6.50
2019-01-17T15:45:29.535Z,6.20
2019-01-17T15:47:59.392Z,5.90
2019-01-17T15:50:29.312Z,5.80
2019-01-17T15:52:59.203Z,5.90
2019-01-17T15:55:28.874Z,5.80
2019-01-17T15:57:58.573Z,5.80
2019-01-17T16:00:30.242Z,5.70
2019-01-17T16:03:00.033Z,5.70
2019-01-17T16:05:29.719Z,5.60
2019-01-17T16:07:59.460Z,5.60
2019-01-17T16:10:29.072Z,5.60
2019-01-17T16:12:58.836Z,5.50
2019-01-17T16:15:28.600Z,5.50
2019-01-17T16:17:58.512Z,5.60
2019-01-17T16:20:28.137Z,5.40
2019-01-17T16:22:57.776Z,5.10
2019-01-17T16:25:29.352Z,5.20
2019-01-17T16:27:59.016Z,5.20
2019-01-17T16:30:30.076Z,5.30
2019-01-17T16:32:59.716Z,5.40
2019-01-17T16:35:29.419Z,5.40
2019-01-17T16:37:59.321Z,5.50
2019-01-17T16:40:29.477Z,5.50
2019-01-17T16:42:59.108Z,5.60
2019-01-17T16:45:35.197Z,5.50
2019-01-17T16:48:00.168Z,5.50
2019-01-17T16:50:29.788Z,5.50
2019-01-17T16:52:59.497Z,5.50
2019-01-17T16:55:29.129Z,5.50
2019-01-17T16:57:58.961Z,5.60
2019-01-17T17:00:31.784Z,5.50
2019-01-17T17:03:01.881Z,5.50
2019-01-17T17:05:34.698Z,5.40
2019-01-17T17:11:01.876Z,5.40
2019-01-17T17:13:31.933Z,5.30
2019-01-17T17:16:01.597Z,5.30
2019-01-17T17:18:32.155Z,5.40
2019-01-17T17:21:01.783Z,5.40
2019-01-17T17:23:31.431Z,5.40
2019-01-17T17:26:01.056Z,5.40
2019-01-17T17:28:30.824Z,5.40
2019-01-17T17:31:00.440Z,5.40
2019-01-17T17:33:30.092Z,5.30
2019-01-17T17:35:59.705Z,5.40
2019-01-17T17:38:29.345Z,5.30
2019-01-17T17:40:58.961Z,5.30
2019-01-17T17:43:28.607Z,5.30
2019-01-17T17:45:58.357Z,5.30
2019-01-17T17:48:29.468Z,5.30
2019-01-17T17:50:59.088Z,5.30
2019-01-17T17:53:28.729Z,5.20
2019-01-17T17:55:58.695Z,5.20
2019-01-17T17:58:28.340Z,5.20
2019-01-17T18:00:59.593Z,5.20
2019-01-17T18:03:29.244Z,5.10
2019-01-17T18:05:58.963Z,5.10
2019-01-17T18:08:28.651Z,5.10
2019-01-17T18:10:58.265Z,5.10
2019-01-17T18:13:27.904Z,5.00
2019-01-17T18:15:57.543Z,5.10
2019-01-17T18:18:27.180Z,5.10
2019-01-17T18:20:56.806Z,5.10
2019-01-17T18:23:26.436Z,5.10
2019-01-17T18:25:56.121Z,5.00
2019-01-17T18:28:25.933Z,5.10
2019-01-17T18:30:55.625Z,5.10
2019-01-17T18:33:25.268Z,5.00
2019-01-17T18:35:55.020Z,5.00
2019-01-17T18:38:24.665Z,5.00
2019-01-17T18:40:54.288Z,5.20
2019-01-17T18:43:24.025Z,6.10
2019-01-17T18:45:53.632Z,5.90
2019-01-17T18:48:23.277Z,5.40
2019-01-17T18:50:53.932Z,5.30
2019-01-17T18:53:23.580Z,5.20
2019-01-17T18:55:53.432Z,5.20
2019-01-17T18:58:23.420Z,5.20
2019-01-17T19:00:53.117Z,5.20
2019-01-17T19:03:22.828Z,5.20
2019-01-17T19:05:52.444Z,5.10
2019-01-17T19:08:22.084Z,5.10
2019-01-17T19:10:51.764Z,5.00
2019-01-17T19:13:21.419Z,5.00
2019-01-17T19:15:51.036Z,5.00
2019-01-17T19:18:20.798Z,5.00
2019-01-17T19:20:50.482Z,5.00
2019-01-17T19:23:20.261Z,4.90
2019-01-17T19:25:49.971Z,4.90
2019-01-17T19:28:22.487Z,4.90
2019-01-17T19:30:51.037Z,4.80
2019-01-17T19:33:20.873Z,4.80
2019-01-17T19:35:50.491Z,4.70
2019-01-17T19:38:20.228Z,4.80
2019-01-17T19:40:49.840Z,4.80
2019-01-17T19:43:19.480Z,4.80
2019-01-17T19:45:49.194Z,4.70
2019-01-17T19:48:18.929Z,4.70
2019-01-17T19:50:48.548Z,4.70
2019-01-17T19:53:18.195Z,4.70
2019-01-17T19:55:47.881Z,4.70
2019-01-17T19:58:18.700Z,4.70
2019-01-17T20:00:48.320Z,4.70
2019-01-17T20:03:17.956Z,4.70
2019-01-17T20:05:47.748Z,4.70
2019-01-17T20:08:17.470Z,4.60
2019-01-17T20:10:47.112Z,4.60
2019-01-17T20:13:16.820Z,4.60
2019-01-17T20:15:46.612Z,4.60
2019-01-17T20:18:16.320Z,4.60
2019-01-17T20:20:46.004Z,4.50
2019-01-17T20:23:15.657Z,4.60
2019-01-17T20:25:45.353Z,4.50
2019-01-17T20:28:15.016Z,4.40
2019-01-17T20:30:44.874Z,4.40
2019-01-17T20:33:14.531Z,4.40
2019-01-17T20:35:44.140Z,4.40
2019-01-17T20:38:14.120Z,4.40
2019-01-17T20:40:43.724Z,4.30
2019-01-17T20:43:13.430Z,4.30
2019-01-17T20:45:43.073Z,4.30
2019-01-17T20:48:12.720Z,4.30
2019-01-17T20:50:42.428Z,4.40
2019-01-17T20:53:12.109Z,4.30
2019-01-17T20:55:41.743Z,4.30
2019-01-17T20:58:11.441Z,4.30
2019-01-17T21:00:46.852Z,4.30
2019-01-17T21:03:18.109Z,4.30
2019-01-17T21:05:47.813Z,4.30
2019-01-17T21:08:17.522Z,4.20
2019-01-17T21:10:47.161Z,4.20
2019-01-17T21:13:16.854Z,4.20
2019-01-17T21:15:46.484Z,4.20
2019-01-17T21:18:16.231Z,4.20
2019-01-17T21:20:45.998Z,4.20
2019-01-17T21:23:15.617Z,4.20
2019-01-17T21:25:45.265Z,4.10
2019-01-17T21:28:14.884Z,4.10
2019-01-17T21:30:44.552Z,4.10
2019-01-17T21:33:14.140Z,4.10
2019-01-17T21:35:43.780Z,4.20
2019-01-17T21:38:13.388Z,4.20
2019-01-17T21:40:44.143Z,4.20
2019-01-17T21:43:13.715Z,4.20
2019-01-17T21:45:43.408Z,4.20
2019-01-17T21:48:13.081Z,4.20
2019-01-17T21:50:42.732Z,4.20
2019-01-17T21:53:12.344Z,4.20
2019-01-17T21:55:42.037Z,4.20
2019-01-17T21:58:11.605Z,4.20
2019-01-17T22:00:41.255Z,4.10
2019-01-17T22:03:10.883Z,4.10
2019-01-17T22:05:40.514Z,4.10
2019-01-17T22:08:10.216Z,4.10
2019-01-17T22:10:39.858Z,4.10
2019-01-17T22:13:09.544Z,4.10
2019-01-17T22:15:39.180Z,4.00
2019-01-17T22:18:08.804Z,4.00
2019-01-17T22:20:38.450Z,3.90
2019-01-17T22:23:08.056Z,4.00
2019-01-17T22:25:37.764Z,4.10
2019-01-17T22:28:07.480Z,4.00
2019-01-17T22:30:37.288Z,4.10
2019-01-17T22:33:06.914Z,4.20
2019-01-17T22:35:36.794Z,4.20
2019-01-17T22:38:06.404Z,4.20
2019-01-17T22:40:36.052Z,4.30
2019-01-17T22:43:05.804Z,4.30
2019-01-17T22:45:35.515Z,4.20
2019-01-17T22:48:05.261Z,4.30
2019-01-17T22:50:34.904Z,4.30
2019-01-17T22:53:04.601Z,4.20
2019-01-17T22:55:34.232Z,4.20
2019-01-17T22:58:03.844Z,4.20
2019-01-17T23:00:40.925Z,4.20
2019-01-17T23:03:10.540Z,4.30
2019-01-17T23:05:40.173Z,4.20
2019-01-17T23:08:09.910Z,4.20
2019-01-17T23:10:39.640Z,4.20
2019-01-17T23:13:09.288Z,4.10
2019-01-17T23:15:39.046Z,4.20
2019-01-17T23:18:08.684Z,4.30
2019-01-17T23:20:38.301Z,4.30
2019-01-17T23:23:07.938Z,4.40
2019-01-17T23:25:37.616Z,4.20
2019-01-17T23:28:07.335Z,4.30
2019-01-17T23:30:37.073Z,4.40
2019-01-17T23:33:06.776Z,4.40
2019-01-17T23:35:36.462Z,4.40
2019-01-17T23:38:06.100Z,4.40
2019-01-17T23:40:35.720Z,4.30
2019-01-17T23:43:05.607Z,4.40
2019-01-17T23:45:35.219Z,4.40
2019-01-17T23:48:05.330Z,4.40
2019-01-17T23:50:35.016Z,4.40
2019-01-17T23:53:05.195Z,4.20
2019-01-17T23:55:34.805Z,3.90
2019-01-17T23:58:04.708Z,3.70
